This is the latest recevied weather packets stored in our database for station/object K5YNC. If no packets are shown the sender has not sent any weather packets the latest 10 day(s).
| Time | Temp. | Humidity | Pressure | Rain* | Wind** | Luminosity | Snow |
|---|---|---|---|---|---|---|---|
| 1777509911 | 16.11° C | 75% | 1016.3 hPa | 0 mm | - | 12 W/m² | - |
| 1777509606 | 16.11° C | 75% | 1016.3 hPa | 0 mm | - | 11 W/m² | - |
| 1777509303 | 16.11° C | 74% | 1016.6 hPa | 0 mm | - | 11 W/m² | - |
| 1777509000 | 16.67° C | 74% | 1016.6 hPa | 0 mm | - | 15 W/m² | - |
| 1777508697 | 16.67° C | 74% | 1016.4 hPa | 0 mm | - | 19 W/m² | - |
| 1777508394 | 16.67° C | 74% | 1016.2 hPa | 0 mm | - | 26 W/m² | - |
| 1777508091 | 16.67° C | 75% | 1016.2 hPa | 0 mm | - | 28 W/m² | - |
| 1777507788 | 16.67° C | 76% | 1016.2 hPa | 0 mm | - | 25 W/m² | - |
| 1777507485 | 16.67° C | 75% | 1016.5 hPa | 0 mm | - | 26 W/m² | - |
| 1777507182 | 16.67° C | 75% | 1016.4 hPa | 0 mm | - | 27 W/m² | - |
| 1777506880 | 16.67° C | 76% | 1016.6 hPa | 0 mm | - | 19 W/m² | - |
| 1777506577 | 16.67° C | 74% | 1016.2 hPa | 0 mm | - | 37 W/m² | - |
| 1777506272 | 16.67° C | 76% | 1016.3 hPa | 0 mm | - | 40 W/m² | - |
| 1777505969 | 16.67° C | 73% | 1016.3 hPa | 0 mm | - | 31 W/m² | - |
| 1777505665 | 16.67° C | 72% | 1016 hPa | 0 mm | - | 41 W/m² | - |
| 1777505362 | 16.67° C | 72% | 1015.6 hPa | 0 mm | - | 67 W/m² | - |
| 1777505058 | 17.22° C | 72% | 1016 hPa | 0 mm | - | 82 W/m² | - |
| 1777504755 | 17.22° C | 72% | 1016.1 hPa | 0 mm | - | 99 W/m² | - |
| 1777504453 | 17.22° C | 73% | 1015.8 hPa | 0 mm | - | 118 W/m² | - |
| 1777504148 | 17.22° C | 73% | 1016 hPa | 0 mm | - | 121 W/m² | - |
| 1777503844 | 17.22° C | 72% | 1015.9 hPa | 0 mm | - | 135 W/m² | - |
| 1777503540 | 17.22° C | 72% | 1015.9 hPa | 0 mm | - | 134 W/m² | - |
| 1777503236 | 17.22° C | 71% | 1015.9 hPa | 0 mm | - | 129 W/m² | - |
| 1777502933 | 17.22° C | 71% | 1015.9 hPa | 0 mm | - | 126 W/m² | - |
| 1777502631 | 17.22° C | 72% | 1016.1 hPa | 0 mm | - | 110 W/m² | - |
* Rain latest hour (hover to see other rain measurements)
** Current wind speed in m/s (hover to see current wind gust speed)